sensor_id;sensor_type;location;lat;lon;timestamp;P1;durP1;ratioP1;P2;durP2;ratioP2
67965;SDS011;54749;47.850;9.002;2022-11-20T00:00:15;7.05;;;2.75;;
67965;SDS011;54749;47.850;9.002;2022-11-20T00:03:03;7.05;;;3.05;;
67965;SDS011;54749;47.850;9.002;2022-11-20T00:05:31;6.72;;;2.92;;
67965;SDS011;54749;47.850;9.002;2022-11-20T00:07:59;8.73;;;3.25;;
67965;SDS011;54749;47.850;9.002;2022-11-20T00:10:26;7.20;;;3.10;;
67965;SDS011;54749;47.850;9.002;2022-11-20T00:12:52;10.52;;;4.03;;
67965;SDS011;54749;47.850;9.002;2022-11-20T00:15:19;9.38;;;3.72;;
67965;SDS011;54749;47.850;9.002;2022-11-20T00:17:46;13.93;;;5.75;;
67965;SDS011;54749;47.850;9.002;2022-11-20T00:20:13;11.90;;;5.40;;
67965;SDS011;54749;47.850;9.002;2022-11-20T00:22:40;12.23;;;4.50;;
67965;SDS011;54749;47.850;9.002;2022-11-20T00:25:07;8.20;;;3.10;;
67965;SDS011;54749;47.850;9.002;2022-11-20T00:27:34;7.88;;;3.30;;
67965;SDS011;54749;47.850;9.002;2022-11-20T00:30:01;6.97;;;3.00;;
67965;SDS011;54749;47.850;9.002;2022-11-20T00:32:27;7.68;;;3.50;;
67965;SDS011;54749;47.850;9.002;2022-11-20T00:34:54;7.13;;;2.80;;
67965;SDS011;54749;47.850;9.002;2022-11-20T00:37:21;9.68;;;3.30;;
67965;SDS011;54749;47.850;9.002;2022-11-20T00:39:48;8.70;;;3.85;;
67965;SDS011;54749;47.850;9.002;2022-11-20T00:42:15;8.68;;;3.05;;
67965;SDS011;54749;47.850;9.002;2022-11-20T00:44:42;6.97;;;3.08;;
67965;SDS011;54749;47.850;9.002;2022-11-20T00:47:09;7.13;;;3.23;;
67965;SDS011;54749;47.850;9.002;2022-11-20T00:49:36;8.25;;;3.20;;
67965;SDS011;54749;47.850;9.002;2022-11-20T00:52:02;7.07;;;3.30;;
67965;SDS011;54749;47.850;9.002;2022-11-20T00:54:29;7.82;;;3.10;;
67965;SDS011;54749;47.850;9.002;2022-11-20T00:56:56;8.18;;;3.30;;
67965;SDS011;54749;47.850;9.002;2022-11-20T00:59:23;8.97;;;3.57;;
67965;SDS011;54749;47.850;9.002;2022-11-20T01:01:50;9.27;;;4.30;;
67965;SDS011;54749;47.850;9.002;2022-11-20T01:04:17;9.90;;;4.63;;
67965;SDS011;54749;47.850;9.002;2022-11-20T01:06:43;10.30;;;4.60;;
67965;SDS011;54749;47.850;9.002;2022-11-20T01:09:11;22.45;;;7.60;;
67965;SDS011;54749;47.850;9.002;2022-11-20T01:11:41;15.57;;;6.27;;
67965;SDS011;54749;47.850;9.002;2022-11-20T01:14:10;14.10;;;5.47;;
67965;SDS011;54749;47.850;9.002;2022-11-20T01:16:40;11.93;;;4.68;;
67965;SDS011;54749;47.850;9.002;2022-11-20T01:19:18;15.40;;;6.28;;
67965;SDS011;54749;47.850;9.002;2022-11-20T01:21:48;12.75;;;4.70;;
67965;SDS011;54749;47.850;9.002;2022-11-20T01:24:18;12.40;;;5.00;;
67965;SDS011;54749;47.850;9.002;2022-11-20T01:26:47;17.77;;;5.63;;
67965;SDS011;54749;47.850;9.002;2022-11-20T01:29:16;13.40;;;5.85;;
67965;SDS011;54749;47.850;9.002;2022-11-20T01:31:48;12.57;;;5.00;;
67965;SDS011;54749;47.850;9.002;2022-11-20T01:34:17;15.07;;;5.68;;
67965;SDS011;54749;47.850;9.002;2022-11-20T01:36:45;11.43;;;4.67;;
67965;SDS011;54749;47.850;9.002;2022-11-20T01:39:14;11.95;;;4.80;;
67965;SDS011;54749;47.850;9.002;2022-11-20T01:41:44;11.00;;;4.38;;
67965;SDS011;54749;47.850;9.002;2022-11-20T01:44:44;11.23;;;4.20;;
67965;SDS011;54749;47.850;9.002;2022-11-20T01:47:31;13.52;;;5.40;;
67965;SDS011;54749;47.850;9.002;2022-11-20T01:52:45;14.77;;;6.43;;
67965;SDS011;54749;47.850;9.002;2022-11-20T01:55:21;12.38;;;5.68;;
67965;SDS011;54749;47.850;9.002;2022-11-20T01:57:51;13.38;;;6.00;;
67965;SDS011;54749;47.850;9.002;2022-11-20T02:00:19;13.18;;;5.25;;
67965;SDS011;54749;47.850;9.002;2022-11-20T02:03:00;11.40;;;4.73;;
67965;SDS011;54749;47.850;9.002;2022-11-20T02:05:36;10.18;;;4.70;;
67965;SDS011;54749;47.850;9.002;2022-11-20T02:08:07;11.23;;;4.60;;
67965;SDS011;54749;47.850;9.002;2022-11-20T02:10:34;10.18;;;4.32;;
67965;SDS011;54749;47.850;9.002;2022-11-20T02:13:01;11.95;;;4.80;;
67965;SDS011;54749;47.850;9.002;2022-11-20T02:15:48;10.30;;;4.30;;
67965;SDS011;54749;47.850;9.002;2022-11-20T02:18:16;9.88;;;3.85;;
67965;SDS011;54749;47.850;9.002;2022-11-20T02:20:45;12.13;;;5.05;;
67965;SDS011;54749;47.850;9.002;2022-11-20T02:23:16;13.07;;;5.05;;
67965;SDS011;54749;47.850;9.002;2022-11-20T02:25:57;9.93;;;4.47;;
67965;SDS011;54749;47.850;9.002;2022-11-20T02:28:27;11.00;;;4.60;;
67965;SDS011;54749;47.850;9.002;2022-11-20T02:30:54;17.30;;;5.57;;
67965;SDS011;54749;47.850;9.002;2022-11-20T02:33:20;12.32;;;4.88;;
67965;SDS011;54749;47.850;9.002;2022-11-20T02:35:47;13.13;;;4.80;;
67965;SDS011;54749;47.850;9.002;2022-11-20T02:38:14;13.57;;;5.70;;
67965;SDS011;54749;47.850;9.002;2022-11-20T02:40:41;10.07;;;4.77;;
67965;SDS011;54749;47.850;9.002;2022-11-20T02:43:08;10.68;;;4.10;;
67965;SDS011;54749;47.850;9.002;2022-11-20T02:45:36;10.52;;;3.30;;
67965;SDS011;54749;47.850;9.002;2022-11-20T02:48:03;8.95;;;3.88;;
67965;SDS011;54749;47.850;9.002;2022-11-20T02:50:30;9.93;;;3.70;;
67965;SDS011;54749;47.850;9.002;2022-11-20T02:52:57;8.97;;;3.47;;
67965;SDS011;54749;47.850;9.002;2022-11-20T02:55:24;8.82;;;3.42;;
67965;SDS011;54749;47.850;9.002;2022-11-20T02:57:50;7.13;;;2.67;;
67965;SDS011;54749;47.850;9.002;2022-11-20T03:00:17;7.32;;;2.65;;
67965;SDS011;54749;47.850;9.002;2022-11-20T03:02:44;7.03;;;2.60;;
67965;SDS011;54749;47.850;9.002;2022-11-20T03:05:11;7.63;;;3.10;;
67965;SDS011;54749;47.850;9.002;2022-11-20T03:07:38;9.02;;;3.33;;
67965;SDS011;54749;47.850;9.002;2022-11-20T03:10:05;9.25;;;3.20;;
67965;SDS011;54749;47.850;9.002;2022-11-20T03:12:32;10.23;;;3.30;;
67965;SDS011;54749;47.850;9.002;2022-11-20T03:14:59;8.65;;;3.17;;
67965;SDS011;54749;47.850;9.002;2022-11-20T03:17:26;10.17;;;3.00;;
67965;SDS011;54749;47.850;9.002;2022-11-20T03:19:52;7.47;;;2.97;;
67965;SDS011;54749;47.850;9.002;2022-11-20T03:22:19;7.75;;;3.20;;
67965;SDS011;54749;47.850;9.002;2022-11-20T03:24:46;8.75;;;3.10;;
67965;SDS011;54749;47.850;9.002;2022-11-20T03:27:13;9.55;;;3.83;;
67965;SDS011;54749;47.850;9.002;2022-11-20T03:29:40;8.80;;;3.40;;
67965;SDS011;54749;47.850;9.002;2022-11-20T03:32:07;9.80;;;3.30;;
67965;SDS011;54749;47.850;9.002;2022-11-20T03:34:34;11.07;;;3.17;;
67965;SDS011;54749;47.850;9.002;2022-11-20T03:37:01;7.88;;;2.95;;
67965;SDS011;54749;47.850;9.002;2022-11-20T03:39:28;7.90;;;2.92;;
67965;SDS011;54749;47.850;9.002;2022-11-20T03:41:55;7.90;;;2.80;;
67965;SDS011;54749;47.850;9.002;2022-11-20T03:44:21;8.43;;;3.00;;
67965;SDS011;54749;47.850;9.002;2022-11-20T03:46:48;7.47;;;2.75;;
67965;SDS011;54749;47.850;9.002;2022-11-20T03:49:15;7.68;;;3.10;;
67965;SDS011;54749;47.850;9.002;2022-11-20T03:51:42;7.75;;;3.10;;
67965;SDS011;54749;47.850;9.002;2022-11-20T03:54:09;8.10;;;3.00;;
67965;SDS011;54749;47.850;9.002;2022-11-20T03:56:37;7.82;;;3.15;;
67965;SDS011;54749;47.850;9.002;2022-11-20T03:59:04;6.93;;;2.70;;
67965;SDS011;54749;47.850;9.002;2022-11-20T04:01:33;9.38;;;3.15;;
67965;SDS011;54749;47.850;9.002;2022-11-20T04:04:01;7.03;;;2.88;;
67965;SDS011;54749;47.850;9.002;2022-11-20T04:06:30;8.77;;;3.23;;
67965;SDS011;54749;47.850;9.002;2022-11-20T04:09:00;8.50;;;3.22;;
67965;SDS011;54749;47.850;9.002;2022-11-20T04:11:27;11.23;;;3.97;;
67965;SDS011;54749;47.850;9.002;2022-11-20T04:13:59;10.45;;;3.83;;
67965;SDS011;54749;47.850;9.002;2022-11-20T04:16:31;11.88;;;4.70;;
67965;SDS011;54749;47.850;9.002;2022-11-20T04:19:00;11.77;;;4.70;;
67965;SDS011;54749;47.850;9.002;2022-11-20T04:21:30;14.95;;;5.00;;
67965;SDS011;54749;47.850;9.002;2022-11-20T04:23:57;11.52;;;4.07;;
67965;SDS011;54749;47.850;9.002;2022-11-20T04:26:25;14.55;;;4.72;;
67965;SDS011;54749;47.850;9.002;2022-11-20T04:28:53;13.20;;;4.43;;
67965;SDS011;54749;47.850;9.002;2022-11-20T04:31:21;8.60;;;3.50;;
67965;SDS011;54749;47.850;9.002;2022-11-20T04:33:50;10.00;;;3.33;;
67965;SDS011;54749;47.850;9.002;2022-11-20T04:36:19;10.35;;;3.25;;
67965;SDS011;54749;47.850;9.002;2022-11-20T04:38:51;10.20;;;3.50;;
67965;SDS011;54749;47.850;9.002;2022-11-20T04:41:23;7.13;;;3.20;;
67965;SDS011;54749;47.850;9.002;2022-11-20T04:43:53;11.13;;;4.10;;
67965;SDS011;54749;47.850;9.002;2022-11-20T04:46:26;13.02;;;4.85;;
67965;SDS011;54749;47.850;9.002;2022-11-20T04:48:54;11.32;;;3.92;;
67965;SDS011;54749;47.850;9.002;2022-11-20T04:51:21;10.98;;;4.25;;
67965;SDS011;54749;47.850;9.002;2022-11-20T04:53:49;11.75;;;4.13;;
67965;SDS011;54749;47.850;9.002;2022-11-20T04:56:16;9.27;;;4.00;;
67965;SDS011;54749;47.850;9.002;2022-11-20T04:58:43;12.32;;;4.60;;
67965;SDS011;54749;47.850;9.002;2022-11-20T05:01:11;8.65;;;3.67;;
67965;SDS011;54749;47.850;9.002;2022-11-20T05:03:43;13.57;;;5.40;;
67965;SDS011;54749;47.850;9.002;2022-11-20T05:06:11;13.18;;;4.95;;
67965;SDS011;54749;47.850;9.002;2022-11-20T05:08:40;12.07;;;4.53;;
67965;SDS011;54749;47.850;9.002;2022-11-20T05:11:11;13.40;;;4.85;;
67965;SDS011;54749;47.850;9.002;2022-11-20T05:13:40;10.00;;;3.90;;
67965;SDS011;54749;47.850;9.002;2022-11-20T05:16:11;9.77;;;3.80;;
67965;SDS011;54749;47.850;9.002;2022-11-20T05:18:42;9.98;;;3.85;;
67965;SDS011;54749;47.850;9.002;2022-11-20T05:21:10;9.90;;;3.90;;
67965;SDS011;54749;47.850;9.002;2022-11-20T05:23:38;10.75;;;4.45;;
67965;SDS011;54749;47.850;9.002;2022-11-20T05:26:06;9.77;;;4.10;;
67965;SDS011;54749;47.850;9.002;2022-11-20T05:28:35;14.20;;;5.78;;
67965;SDS011;54749;47.850;9.002;2022-11-20T05:31:06;11.02;;;4.22;;
67965;SDS011;54749;47.850;9.002;2022-11-20T05:33:38;10.67;;;4.33;;
67965;SDS011;54749;47.850;9.002;2022-11-20T05:36:07;10.32;;;3.75;;
67965;SDS011;54749;47.850;9.002;2022-11-20T05:38:35;9.20;;;3.47;;
67965;SDS011;54749;47.850;9.002;2022-11-20T05:43:32;7.30;;;2.90;;
67965;SDS011;54749;47.850;9.002;2022-11-20T05:46:00;8.80;;;3.50;;
67965;SDS011;54749;47.850;9.002;2022-11-20T05:48:27;10.90;;;4.10;;
67965;SDS011;54749;47.850;9.002;2022-11-20T05:50:56;10.63;;;5.03;;
67965;SDS011;54749;47.850;9.002;2022-11-20T05:53:24;9.23;;;3.83;;
67965;SDS011;54749;47.850;9.002;2022-11-20T05:58:48;8.23;;;3.23;;
67965;SDS011;54749;47.850;9.002;2022-11-20T06:01:22;11.98;;;4.88;;
67965;SDS011;54749;47.850;9.002;2022-11-20T06:03:50;11.68;;;4.30;;
67965;SDS011;54749;47.850;9.002;2022-11-20T06:06:19;13.27;;;5.35;;
67965;SDS011;54749;47.850;9.002;2022-11-20T06:08:46;14.27;;;5.50;;
67965;SDS011;54749;47.850;9.002;2022-11-20T06:11:14;9.23;;;3.80;;
67965;SDS011;54749;47.850;9.002;2022-11-20T06:13:43;9.38;;;3.70;;
67965;SDS011;54749;47.850;9.002;2022-11-20T06:16:10;11.90;;;3.63;;
67965;SDS011;54749;47.850;9.002;2022-11-20T06:18:38;10.20;;;3.92;;
67965;SDS011;54749;47.850;9.002;2022-11-20T06:23:32;10.73;;;3.47;;
67965;SDS011;54749;47.850;9.002;2022-11-20T06:26:01;8.27;;;3.30;;
67965;SDS011;54749;47.850;9.002;2022-11-20T06:28:37;10.57;;;3.20;;
67965;SDS011;54749;47.850;9.002;2022-11-20T06:31:04;9.23;;;3.78;;
67965;SDS011;54749;47.850;9.002;2022-11-20T06:33:32;8.15;;;3.50;;
67965;SDS011;54749;47.850;9.002;2022-11-20T06:36:00;9.77;;;3.70;;
67965;SDS011;54749;47.850;9.002;2022-11-20T06:38:35;8.95;;;3.60;;
67965;SDS011;54749;47.850;9.002;2022-11-20T06:41:03;8.82;;;3.60;;
67965;SDS011;54749;47.850;9.002;2022-11-20T06:43:34;6.55;;;2.80;;
67965;SDS011;54749;47.850;9.002;2022-11-20T06:46:00;11.02;;;5.15;;
67965;SDS011;54749;47.850;9.002;2022-11-20T06:48:27;9.37;;;4.30;;
67965;SDS011;54749;47.850;9.002;2022-11-20T06:50:55;11.52;;;4.43;;
67965;SDS011;54749;47.850;9.002;2022-11-20T06:53:23;11.25;;;4.35;;
67965;SDS011;54749;47.850;9.002;2022-11-20T06:55:50;12.95;;;5.28;;
67965;SDS011;54749;47.850;9.002;2022-11-20T06:58:18;10.38;;;4.82;;
67965;SDS011;54749;47.850;9.002;2022-11-20T07:00:45;13.17;;;5.10;;
67965;SDS011;54749;47.850;9.002;2022-11-20T07:03:12;12.18;;;4.22;;
67965;SDS011;54749;47.850;9.002;2022-11-20T07:05:39;12.45;;;5.13;;
67965;SDS011;54749;47.850;9.002;2022-11-20T07:08:07;10.30;;;4.82;;
67965;SDS011;54749;47.850;9.002;2022-11-20T07:10:34;12.32;;;4.93;;
67965;SDS011;54749;47.850;9.002;2022-11-20T07:13:02;10.70;;;5.07;;
67965;SDS011;54749;47.850;9.002;2022-11-20T07:15:29;10.23;;;4.28;;
67965;SDS011;54749;47.850;9.002;2022-11-20T07:17:58;11.95;;;5.25;;
67965;SDS011;54749;47.850;9.002;2022-11-20T07:20:26;13.02;;;5.13;;
67965;SDS011;54749;47.850;9.002;2022-11-20T07:22:53;10.63;;;4.70;;
67965;SDS011;54749;47.850;9.002;2022-11-20T07:25:24;10.87;;;4.70;;
67965;SDS011;54749;47.850;9.002;2022-11-20T07:27:52;11.20;;;5.20;;
67965;SDS011;54749;47.850;9.002;2022-11-20T07:30:23;11.70;;;5.00;;
67965;SDS011;54749;47.850;9.002;2022-11-20T07:32:53;11.82;;;5.03;;
67965;SDS011;54749;47.850;9.002;2022-11-20T07:35:21;12.32;;;5.60;;
67965;SDS011;54749;47.850;9.002;2022-11-20T07:37:48;14.03;;;5.30;;
67965;SDS011;54749;47.850;9.002;2022-11-20T07:40:15;10.27;;;4.35;;
67965;SDS011;54749;47.850;9.002;2022-11-20T07:42:49;12.25;;;5.28;;
67965;SDS011;54749;47.850;9.002;2022-11-20T07:45:18;25.08;;;9.82;;
67965;SDS011;54749;47.850;9.002;2022-11-20T07:47:45;25.23;;;9.50;;
67965;SDS011;54749;47.850;9.002;2022-11-20T07:50:12;38.40;;;11.57;;
67965;SDS011;54749;47.850;9.002;2022-11-20T07:52:40;42.38;;;14.30;;
67965;SDS011;54749;47.850;9.002;2022-11-20T07:55:07;32.35;;;11.30;;
67965;SDS011;54749;47.850;9.002;2022-11-20T07:57:34;41.72;;;17.15;;
67965;SDS011;54749;47.850;9.002;2022-11-20T08:00:03;26.13;;;9.68;;
67965;SDS011;54749;47.850;9.002;2022-11-20T08:02:38;23.87;;;9.47;;
67965;SDS011;54749;47.850;9.002;2022-11-20T08:05:06;20.27;;;7.00;;
67965;SDS011;54749;47.850;9.002;2022-11-20T08:07:37;17.55;;;6.13;;
67965;SDS011;54749;47.850;9.002;2022-11-20T08:10:06;16.42;;;6.80;;
67965;SDS011;54749;47.850;9.002;2022-11-20T08:12:34;12.25;;;4.28;;
67965;SDS011;54749;47.850;9.002;2022-11-20T08:15:20;10.13;;;3.80;;
67965;SDS011;54749;47.850;9.002;2022-11-20T08:17:47;10.65;;;3.80;;
67965;SDS011;54749;47.850;9.002;2022-11-20T08:20:34;7.20;;;3.30;;
67965;SDS011;54749;47.850;9.002;2022-11-20T08:23:02;5.45;;;2.30;;
67965;SDS011;54749;47.850;9.002;2022-11-20T08:25:32;7.38;;;2.78;;
67965;SDS011;54749;47.850;9.002;2022-11-20T08:28:02;8.10;;;3.30;;
67965;SDS011;54749;47.850;9.002;2022-11-20T08:30:45;6.30;;;3.17;;
67965;SDS011;54749;47.850;9.002;2022-11-20T08:33:12;6.75;;;2.63;;
67965;SDS011;54749;47.850;9.002;2022-11-20T08:35:39;5.30;;;2.30;;
67965;SDS011;54749;47.850;9.002;2022-11-20T08:38:08;6.90;;;2.97;;
67965;SDS011;54749;47.850;9.002;2022-11-20T08:40:35;10.47;;;4.57;;
67965;SDS011;54749;47.850;9.002;2022-11-20T08:43:02;10.93;;;4.22;;
67965;SDS011;54749;47.850;9.002;2022-11-20T08:45:29;8.02;;;3.25;;
67965;SDS011;54749;47.850;9.002;2022-11-20T08:48:00;8.57;;;3.60;;
67965;SDS011;54749;47.850;9.002;2022-11-20T08:50:28;9.30;;;3.95;;
67965;SDS011;54749;47.850;9.002;2022-11-20T08:53:05;10.30;;;3.43;;
67965;SDS011;54749;47.850;9.002;2022-11-20T08:55:32;8.68;;;3.40;;
67965;SDS011;54749;47.850;9.002;2022-11-20T08:58:05;11.00;;;4.13;;
67965;SDS011;54749;47.850;9.002;2022-11-20T09:00:33;9.68;;;3.42;;
67965;SDS011;54749;47.850;9.002;2022-11-20T09:03:01;14.13;;;6.70;;
67965;SDS011;54749;47.850;9.002;2022-11-20T09:05:28;14.80;;;4.90;;
67965;SDS011;54749;47.850;9.002;2022-11-20T09:07:56;10.70;;;5.35;;
67965;SDS011;54749;47.850;9.002;2022-11-20T09:10:23;24.55;;;14.48;;
67965;SDS011;54749;47.850;9.002;2022-11-20T09:12:51;17.95;;;10.02;;
67965;SDS011;54749;47.850;9.002;2022-11-20T09:15:18;13.52;;;7.57;;
67965;SDS011;54749;47.850;9.002;2022-11-20T09:17:56;8.97;;;3.70;;
67965;SDS011;54749;47.850;9.002;2022-11-20T09:20:25;10.68;;;5.70;;
67965;SDS011;54749;47.850;9.002;2022-11-20T09:22:52;25.38;;;15.38;;
67965;SDS011;54749;47.850;9.002;2022-11-20T09:25:19;19.40;;;11.40;;
67965;SDS011;54749;47.850;9.002;2022-11-20T09:27:46;15.27;;;8.20;;
67965;SDS011;54749;47.850;9.002;2022-11-20T09:30:13;21.03;;;10.40;;
67965;SDS011;54749;47.850;9.002;2022-11-20T09:32:41;14.00;;;7.00;;
67965;SDS011;54749;47.850;9.002;2022-11-20T09:35:09;12.40;;;4.97;;
67965;SDS011;54749;47.850;9.002;2022-11-20T09:37:37;11.18;;;4.60;;
67965;SDS011;54749;47.850;9.002;2022-11-20T09:40:04;15.43;;;7.90;;
67965;SDS011;54749;47.850;9.002;2022-11-20T09:53:46;7.72;;;3.60;;
67965;SDS011;54749;47.850;9.002;2022-11-20T09:56:23;15.20;;;6.47;;
67965;SDS011;54749;47.850;9.002;2022-11-20T09:58:51;14.05;;;7.18;;
67965;SDS011;54749;47.850;9.002;2022-11-20T10:01:21;24.35;;;14.45;;
67965;SDS011;54749;47.850;9.002;2022-11-20T10:06:29;18.92;;;9.75;;
67965;SDS011;54749;47.850;9.002;2022-11-20T10:14:58;14.95;;;7.93;;
67965;SDS011;54749;47.850;9.002;2022-11-20T10:17:54;10.52;;;4.95;;
67965;SDS011;54749;47.850;9.002;2022-11-20T10:28:40;14.45;;;7.55;;
67965;SDS011;54749;47.850;9.002;2022-11-20T10:31:29;12.50;;;5.72;;
67965;SDS011;54749;47.850;9.002;2022-11-20T10:34:00;8.95;;;4.30;;
67965;SDS011;54749;47.850;9.002;2022-11-20T10:36:52;7.80;;;2.80;;
67965;SDS011;54749;47.850;9.002;2022-11-20T10:39:28;15.68;;;9.65;;
67965;SDS011;54749;47.850;9.002;2022-11-20T10:42:01;21.23;;;14.02;;
67965;SDS011;54749;47.850;9.002;2022-11-20T10:44:29;12.38;;;6.53;;
67965;SDS011;54749;47.850;9.002;2022-11-20T10:47:21;8.95;;;5.40;;
67965;SDS011;54749;47.850;9.002;2022-11-20T10:49:50;9.73;;;5.80;;
67965;SDS011;54749;47.850;9.002;2022-11-20T10:58:13;6.63;;;2.53;;
67965;SDS011;54749;47.850;9.002;2022-11-20T11:00:40;4.38;;;2.10;;
67965;SDS011;54749;47.850;9.002;2022-11-20T11:03:26;7.03;;;3.67;;
67965;SDS011;54749;47.850;9.002;2022-11-20T11:05:56;5.97;;;2.88;;
67965;SDS011;54749;47.850;9.002;2022-11-20T11:08:32;4.93;;;2.13;;
67965;SDS011;54749;47.850;9.002;2022-11-20T11:11:05;9.20;;;5.55;;
67965;SDS011;54749;47.850;9.002;2022-11-20T11:13:50;5.10;;;2.45;;
67965;SDS011;54749;47.850;9.002;2022-11-20T11:16:21;4.73;;;2.00;;
67965;SDS011;54749;47.850;9.002;2022-11-20T11:18:49;4.82;;;2.05;;
67965;SDS011;54749;47.850;9.002;2022-11-20T11:21:24;5.25;;;1.92;;
67965;SDS011;54749;47.850;9.002;2022-11-20T11:24:01;5.43;;;1.92;;
67965;SDS011;54749;47.850;9.002;2022-11-20T11:29:23;5.30;;;2.10;;
67965;SDS011;54749;47.850;9.002;2022-11-20T11:32:02;4.88;;;1.70;;
67965;SDS011;54749;47.850;9.002;2022-11-20T11:34:31;4.78;;;2.30;;
67965;SDS011;54749;47.850;9.002;2022-11-20T11:36:58;5.07;;;2.33;;
67965;SDS011;54749;47.850;9.002;2022-11-20T11:39:27;5.32;;;2.22;;
67965;SDS011;54749;47.850;9.002;2022-11-20T11:41:55;4.77;;;1.90;;
67965;SDS011;54749;47.850;9.002;2022-11-20T11:44:57;4.85;;;2.15;;
67965;SDS011;54749;47.850;9.002;2022-11-20T11:47:32;5.43;;;2.30;;
67965;SDS011;54749;47.850;9.002;2022-11-20T11:55:12;4.97;;;2.10;;
67965;SDS011;54749;47.850;9.002;2022-11-20T11:57:46;5.18;;;2.55;;
67965;SDS011;54749;47.850;9.002;2022-11-20T12:00:15;6.68;;;3.38;;
67965;SDS011;54749;47.850;9.002;2022-11-20T12:05:24;9.10;;;3.20;;
67965;SDS011;54749;47.850;9.002;2022-11-20T12:07:58;4.90;;;1.90;;
67965;SDS011;54749;47.850;9.002;2022-11-20T12:10:43;4.40;;;1.50;;
67965;SDS011;54749;47.850;9.002;2022-11-20T12:16:00;8.45;;;4.15;;
67965;SDS011;54749;47.850;9.002;2022-11-20T12:18:29;7.32;;;3.10;;
67965;SDS011;54749;47.850;9.002;2022-11-20T12:23:44;7.78;;;3.50;;
67965;SDS011;54749;47.850;9.002;2022-11-20T12:29:31;8.32;;;4.20;;
67965;SDS011;54749;47.850;9.002;2022-11-20T12:32:22;6.40;;;4.00;;
67965;SDS011;54749;47.850;9.002;2022-11-20T12:38:20;5.70;;;2.80;;
67965;SDS011;54749;47.850;9.002;2022-11-20T12:43:37;6.30;;;2.53;;
67965;SDS011;54749;47.850;9.002;2022-11-20T12:46:34;6.38;;;2.20;;
67965;SDS011;54749;47.850;9.002;2022-11-20T12:49:19;15.00;;;9.97;;
67965;SDS011;54749;47.850;9.002;2022-11-20T12:52:35;9.40;;;5.82;;
67965;SDS011;54749;47.850;9.002;2022-11-20T12:55:16;7.97;;;4.43;;
67965;SDS011;54749;47.850;9.002;2022-11-20T13:00:51;7.25;;;3.40;;
67965;SDS011;54749;47.850;9.002;2022-11-20T13:03:28;6.17;;;2.23;;
67965;SDS011;54749;47.850;9.002;2022-11-20T13:06:13;6.50;;;2.30;;
67965;SDS011;54749;47.850;9.002;2022-11-20T13:08:48;12.43;;;5.78;;
67965;SDS011;54749;47.850;9.002;2022-11-20T13:14:50;5.15;;;2.40;;
67965;SDS011;54749;47.850;9.002;2022-11-20T13:17:24;18.70;;;13.90;;
67965;SDS011;54749;47.850;9.002;2022-11-20T13:20:03;9.55;;;5.63;;
67965;SDS011;54749;47.850;9.002;2022-11-20T13:22:43;7.88;;;4.25;;
67965;SDS011;54749;47.850;9.002;2022-11-20T13:25:22;10.98;;;6.03;;
67965;SDS011;54749;47.850;9.002;2022-11-20T13:27:54;7.70;;;4.15;;
67965;SDS011;54749;47.850;9.002;2022-11-20T13:30:23;6.67;;;3.77;;
67965;SDS011;54749;47.850;9.002;2022-11-20T13:32:55;5.50;;;3.20;;
67965;SDS011;54749;47.850;9.002;2022-11-20T13:35:35;7.22;;;2.97;;
67965;SDS011;54749;47.850;9.002;2022-11-20T13:38:05;7.75;;;4.38;;
67965;SDS011;54749;47.850;9.002;2022-11-20T13:40:32;8.18;;;4.30;;
67965;SDS011;54749;47.850;9.002;2022-11-20T13:45:29;7.72;;;4.13;;
67965;SDS011;54749;47.850;9.002;2022-11-20T13:48:02;8.43;;;2.60;;
67965;SDS011;54749;47.850;9.002;2022-11-20T13:50:42;6.55;;;2.88;;
67965;SDS011;54749;47.850;9.002;2022-11-20T13:53:31;9.80;;;3.05;;
67965;SDS011;54749;47.850;9.002;2022-11-20T14:01:43;11.60;;;4.70;;
67965;SDS011;54749;47.850;9.002;2022-11-20T14:04:17;11.95;;;5.03;;
67965;SDS011;54749;47.850;9.002;2022-11-20T14:06:47;8.25;;;3.30;;
67965;SDS011;54749;47.850;9.002;2022-11-20T14:09:25;9.33;;;3.60;;
67965;SDS011;54749;47.850;9.002;2022-11-20T14:11:53;10.05;;;4.80;;
67965;SDS011;54749;47.850;9.002;2022-11-20T14:14:21;8.57;;;3.88;;
67965;SDS011;54749;47.850;9.002;2022-11-20T14:16:50;7.68;;;3.20;;
67965;SDS011;54749;47.850;9.002;2022-11-20T14:19:28;8.55;;;3.90;;
67965;SDS011;54749;47.850;9.002;2022-11-20T14:25:01;6.40;;;3.00;;
67965;SDS011;54749;47.850;9.002;2022-11-20T14:27:38;11.45;;;3.88;;
67965;SDS011;54749;47.850;9.002;2022-11-20T14:30:15;7.90;;;2.70;;
67965;SDS011;54749;47.850;9.002;2022-11-20T14:32:45;8.68;;;3.20;;
67965;SDS011;54749;47.850;9.002;2022-11-20T14:35:21;10.30;;;4.10;;
67965;SDS011;54749;47.850;9.002;2022-11-20T14:37:54;8.60;;;3.22;;
67965;SDS011;54749;47.850;9.002;2022-11-20T14:42:49;6.70;;;2.42;;
67965;SDS011;54749;47.850;9.002;2022-11-20T14:45:16;8.00;;;3.30;;
67965;SDS011;54749;47.850;9.002;2022-11-20T14:47:44;7.00;;;2.57;;
67965;SDS011;54749;47.850;9.002;2022-11-20T14:50:12;14.75;;;5.30;;
67965;SDS011;54749;47.850;9.002;2022-11-20T14:52:51;9.18;;;2.85;;
67965;SDS011;54749;47.850;9.002;2022-11-20T14:55:31;10.30;;;3.42;;
67965;SDS011;54749;47.850;9.002;2022-11-20T14:58:05;12.43;;;4.28;;
67965;SDS011;54749;47.850;9.002;2022-11-20T15:00:53;6.70;;;2.77;;
67965;SDS011;54749;47.850;9.002;2022-11-20T15:03:22;8.10;;;3.30;;
67965;SDS011;54749;47.850;9.002;2022-11-20T15:05:57;8.73;;;4.00;;
67965;SDS011;54749;47.850;9.002;2022-11-20T15:08:23;8.68;;;3.67;;
67965;SDS011;54749;47.850;9.002;2022-11-20T15:10:51;7.55;;;3.05;;
67965;SDS011;54749;47.850;9.002;2022-11-20T15:13:30;8.87;;;3.10;;
67965;SDS011;54749;47.850;9.002;2022-11-20T15:16:03;8.85;;;3.58;;
67965;SDS011;54749;47.850;9.002;2022-11-20T15:18:38;8.65;;;3.55;;
67965;SDS011;54749;47.850;9.002;2022-11-20T15:21:12;14.88;;;5.80;;
67965;SDS011;54749;47.850;9.002;2022-11-20T15:23:43;13.27;;;5.70;;
67965;SDS011;54749;47.850;9.002;2022-11-20T15:26:11;17.90;;;6.17;;
67965;SDS011;54749;47.850;9.002;2022-11-20T15:28:46;12.50;;;5.45;;
67965;SDS011;54749;47.850;9.002;2022-11-20T15:31:15;13.43;;;5.00;;
67965;SDS011;54749;47.850;9.002;2022-11-20T15:33:43;11.93;;;4.95;;
67965;SDS011;54749;47.850;9.002;2022-11-20T15:36:10;11.98;;;4.80;;
67965;SDS011;54749;47.850;9.002;2022-11-20T15:38:37;10.77;;;4.50;;
67965;SDS011;54749;47.850;9.002;2022-11-20T15:41:04;9.13;;;3.38;;
67965;SDS011;54749;47.850;9.002;2022-11-20T15:43:31;9.73;;;4.05;;
67965;SDS011;54749;47.850;9.002;2022-11-20T15:45:59;8.00;;;3.55;;
67965;SDS011;54749;47.850;9.002;2022-11-20T15:51:27;8.60;;;3.47;;
67965;SDS011;54749;47.850;9.002;2022-11-20T15:53:56;10.65;;;3.40;;
67965;SDS011;54749;47.850;9.002;2022-11-20T15:56:24;11.68;;;4.13;;
67965;SDS011;54749;47.850;9.002;2022-11-20T15:58:51;12.25;;;5.25;;
67965;SDS011;54749;47.850;9.002;2022-11-20T16:01:20;9.82;;;4.10;;
67965;SDS011;54749;47.850;9.002;2022-11-20T16:03:48;8.57;;;3.70;;
67965;SDS011;54749;47.850;9.002;2022-11-20T16:06:16;8.57;;;3.72;;
67965;SDS011;54749;47.850;9.002;2022-11-20T16:08:42;8.57;;;3.40;;
67965;SDS011;54749;47.850;9.002;2022-11-20T16:11:13;7.53;;;3.53;;
67965;SDS011;54749;47.850;9.002;2022-11-20T16:13:41;9.38;;;3.80;;
67965;SDS011;54749;47.850;9.002;2022-11-20T16:16:34;8.50;;;3.23;;
67965;SDS011;54749;47.850;9.002;2022-11-20T16:19:03;9.02;;;3.80;;
67965;SDS011;54749;47.850;9.002;2022-11-20T16:21:30;9.80;;;3.60;;
67965;SDS011;54749;47.850;9.002;2022-11-20T16:23:58;8.93;;;3.33;;
67965;SDS011;54749;47.850;9.002;2022-11-20T16:26:26;9.65;;;2.90;;
67965;SDS011;54749;47.850;9.002;2022-11-20T16:28:53;8.07;;;2.77;;
67965;SDS011;54749;47.850;9.002;2022-11-20T16:31:21;24.88;;;6.32;;
67965;SDS011;54749;47.850;9.002;2022-11-20T16:33:49;45.15;;;12.45;;